createdAt,value
2023-10-26T00:01:31.338Z,4.32
2023-10-26T00:04:03.715Z,4.20
2023-10-26T00:06:33.430Z,4.25
2023-10-26T00:09:03.127Z,4.97
2023-10-26T00:11:33.177Z,4.40
2023-10-26T00:14:02.776Z,5.72
2023-10-26T00:16:32.369Z,5.72
2023-10-26T00:19:04.640Z,5.50
2023-10-26T00:21:34.253Z,5.20
2023-10-26T00:24:03.936Z,5.75
2023-10-26T00:26:33.552Z,5.03
2023-10-26T00:29:03.156Z,5.40
2023-10-26T00:31:32.758Z,6.25
2023-10-26T00:34:05.105Z,7.05
2023-10-26T00:36:34.698Z,6.18
2023-10-26T00:39:04.330Z,5.78
2023-10-26T00:41:34.681Z,6.13
2023-10-26T00:44:04.329Z,5.55
2023-10-26T00:46:34.015Z,5.25
2023-10-26T00:49:08.016Z,6.15
2023-10-26T00:51:37.717Z,5.57
2023-10-26T00:54:07.755Z,5.65
2023-10-26T00:56:37.363Z,5.53
2023-10-26T00:59:07.167Z,4.88
2023-10-26T01:01:36.868Z,5.95
2023-10-26T01:04:09.257Z,5.28
2023-10-26T01:06:38.869Z,5.80
2023-10-26T01:09:09.789Z,5.93
2023-10-26T01:14:09.016Z,5.47
2023-10-26T01:16:38.887Z,5.40
2023-10-26T01:19:11.363Z,5.85
2023-10-26T01:21:53.761Z,6.55
2023-10-26T01:24:23.632Z,5.78
2023-10-26T01:26:53.335Z,6.80
2023-10-26T01:29:23.136Z,6.13
2023-10-26T01:31:52.947Z,5.95
2023-10-26T01:34:22.577Z,5.88
2023-10-26T01:36:54.782Z,7.00
2023-10-26T01:39:24.555Z,5.95
2023-10-26T01:41:54.231Z,6.50
2023-10-26T01:44:23.857Z,8.38
2023-10-26T01:46:53.567Z,7.07
2023-10-26T01:49:23.514Z,6.80
2023-10-26T01:51:55.742Z,6.80
2023-10-26T01:54:25.556Z,8.05
2023-10-26T01:56:55.650Z,6.38
2023-10-26T01:59:25.330Z,6.37
2023-10-26T02:01:54.897Z,8.20
2023-10-26T02:04:24.444Z,7.47
2023-10-26T02:06:56.807Z,7.10
2023-10-26T02:09:26.502Z,7.53
2023-10-26T02:11:56.285Z,5.85
2023-10-26T02:14:25.985Z,6.43
2023-10-26T02:16:55.738Z,7.13
2023-10-26T02:19:25.427Z,5.55
2023-10-26T02:21:57.731Z,7.03
2023-10-26T02:24:27.352Z,6.03
2023-10-26T02:26:57.001Z,5.97
2023-10-26T02:29:26.638Z,5.38
2023-10-26T02:31:56.268Z,5.90
2023-10-26T02:34:25.959Z,5.43
2023-10-26T02:36:58.833Z,6.15
2023-10-26T02:39:28.838Z,6.93
2023-10-26T02:41:58.518Z,5.85
2023-10-26T02:44:29.146Z,7.32
2023-10-26T02:46:58.860Z,7.57
2023-10-26T02:49:28.548Z,7.70
2023-10-26T02:52:00.855Z,7.18
2023-10-26T02:54:30.759Z,6.85
2023-10-26T02:57:00.666Z,7.28
2023-10-26T02:59:30.275Z,6.38
2023-10-26T03:02:00.113Z,5.97
2023-10-26T03:04:29.772Z,6.53
2023-10-26T03:07:02.046Z,6.53
2023-10-26T03:09:32.895Z,6.22
2023-10-26T03:12:02.623Z,7.30
2023-10-26T03:14:32.256Z,6.72
2023-10-26T03:17:02.051Z,6.45
2023-10-26T03:19:31.821Z,5.85
2023-10-26T03:22:04.186Z,7.35
2023-10-26T03:24:33.835Z,7.40
2023-10-26T03:27:03.502Z,6.85
2023-10-26T03:29:33.097Z,7.05
2023-10-26T03:32:03.963Z,6.72
2023-10-26T03:34:35.109Z,8.32
2023-10-26T03:37:07.740Z,6.88
2023-10-26T03:39:38.252Z,6.75
2023-10-26T03:42:08.630Z,6.15
2023-10-26T03:44:38.277Z,5.97
2023-10-26T03:47:08.280Z,6.47
2023-10-26T03:49:37.996Z,7.32
2023-10-26T03:52:10.783Z,6.43
2023-10-26T03:54:40.621Z,6.63
2023-10-26T03:57:10.531Z,6.90
2023-10-26T03:59:40.237Z,6.68
2023-10-26T04:02:09.946Z,6.70
2023-10-26T04:04:39.572Z,6.97
2023-10-26T04:07:11.893Z,6.25
2023-10-26T04:09:41.571Z,7.00
2023-10-26T04:12:11.871Z,6.75
2023-10-26T04:14:41.508Z,5.43
2023-10-26T04:17:13.649Z,6.97
2023-10-26T04:19:43.224Z,7.00
2023-10-26T04:22:15.507Z,7.03
2023-10-26T04:24:45.368Z,5.45
2023-10-26T04:27:15.292Z,5.10
2023-10-26T04:29:45.377Z,5.60
2023-10-26T04:32:14.973Z,6.20
2023-10-26T04:34:45.722Z,5.97
2023-10-26T04:37:18.409Z,7.07
2023-10-26T04:39:48.026Z,6.05
2023-10-26T04:42:17.754Z,6.20
2023-10-26T04:44:47.615Z,7.40
2023-10-26T04:47:17.247Z,5.78
2023-10-26T04:49:46.846Z,6.25
2023-10-26T04:52:21.667Z,6.75
2023-10-26T04:54:51.666Z,6.70
2023-10-26T04:57:21.363Z,6.28
2023-10-26T04:59:51.158Z,5.47
2023-10-26T05:02:20.795Z,6.63
2023-10-26T05:04:50.440Z,6.80
2023-10-26T05:07:22.613Z,8.10
2023-10-26T05:09:52.266Z,6.28
2023-10-26T05:12:21.972Z,5.63
2023-10-26T05:14:51.751Z,6.03
2023-10-26T05:17:21.353Z,5.43
2023-10-26T05:19:51.256Z,7.03
2023-10-26T05:22:23.434Z,5.35
2023-10-26T05:24:53.053Z,12.60
2023-10-26T05:27:22.742Z,5.38
2023-10-26T05:29:52.585Z,6.13
2023-10-26T05:32:22.476Z,5.63
2023-10-26T05:34:52.194Z,4.82
2023-10-26T05:37:24.367Z,6.32
2023-10-26T05:39:54.184Z,4.20
2023-10-26T05:42:23.961Z,5.30
2023-10-26T05:44:53.615Z,7.70
2023-10-26T05:47:23.257Z,5.47
2023-10-26T05:49:52.933Z,4.35
2023-10-26T05:52:25.236Z,4.80
2023-10-26T05:54:55.376Z,4.72
2023-10-26T05:57:27.179Z,5.17
2023-10-26T05:59:56.875Z,5.55
2023-10-26T06:02:26.541Z,5.15
2023-10-26T06:04:53.741Z,5.30
2023-10-26T06:07:26.560Z,5.38
2023-10-26T06:09:56.178Z,6.60
2023-10-26T06:12:25.758Z,6.72
2023-10-26T06:14:55.402Z,4.93
2023-10-26T06:17:25.055Z,4.82
2023-10-26T06:19:54.731Z,5.50
2023-10-26T06:22:26.975Z,7.82
2023-10-26T06:24:56.637Z,4.72
2023-10-26T06:27:26.546Z,5.13
2023-10-26T06:29:56.209Z,6.35
2023-10-26T06:32:25.869Z,5.85
2023-10-26T06:34:55.529Z,5.30
2023-10-26T06:37:29.567Z,4.72
2023-10-26T06:39:59.242Z,5.82
2023-10-26T06:42:28.940Z,6.57
2023-10-26T06:44:58.670Z,9.77
2023-10-26T06:47:28.576Z,6.50
2023-10-26T06:49:58.355Z,4.63
2023-10-26T06:52:30.537Z,4.03
2023-10-26T06:55:02.843Z,4.13
2023-10-26T06:57:36.531Z,4.65
2023-10-26T07:00:08.064Z,5.65
2023-10-26T07:02:37.762Z,6.00
2023-10-26T07:05:07.832Z,5.30
2023-10-26T07:07:40.352Z,4.03
2023-10-26T07:10:16.113Z,4.45
2023-10-26T07:12:46.125Z,4.47
2023-10-26T07:15:15.850Z,6.03
2023-10-26T07:17:45.523Z,5.63
2023-10-26T07:20:16.851Z,7.55
2023-10-26T07:22:49.601Z,5.13
2023-10-26T07:25:19.394Z,7.13
2023-10-26T07:27:49.031Z,5.90
2023-10-26T07:30:18.812Z,7.95
2023-10-26T07:32:48.566Z,6.82
2023-10-26T07:35:18.546Z,6.80
2023-10-26T07:38:09.317Z,6.18
2023-10-26T07:40:50.618Z,6.13
2023-10-26T07:43:20.309Z,3.92
2023-10-26T07:45:52.584Z,3.53
2023-10-26T07:48:22.292Z,3.72
2023-10-26T07:50:52.420Z,3.53
2023-10-26T07:53:25.234Z,5.10
2023-10-26T07:55:59.225Z,6.60
2023-10-26T07:58:29.136Z,7.20
2023-10-26T08:00:58.869Z,4.80
2023-10-26T08:03:29.306Z,4.22
2023-10-26T08:06:01.908Z,4.28
2023-10-26T08:08:34.296Z,3.33
2023-10-26T08:11:11.329Z,4.93
2023-10-26T08:13:41.583Z,3.05
2023-10-26T08:16:43.281Z,3.20
2023-10-26T08:19:00.913Z,4.57
2023-10-26T08:21:30.840Z,3.50
2023-10-26T08:24:03.187Z,3.22
2023-10-26T08:26:33.011Z,5.40
2023-10-26T08:29:13.638Z,3.35
2023-10-26T08:31:46.185Z,4.32
2023-10-26T08:34:15.917Z,3.55
2023-10-26T08:36:51.162Z,4.35
2023-10-26T08:39:34.774Z,5.20
2023-10-26T08:42:05.446Z,5.05
2023-10-26T08:44:35.130Z,3.05
2023-10-26T08:47:06.801Z,2.90
2023-10-26T08:49:36.816Z,3.53
2023-10-26T08:52:07.526Z,6.07
2023-10-26T08:54:39.748Z,3.58
2023-10-26T08:57:10.779Z,3.97
2023-10-26T09:02:09.973Z,2.90
2023-10-26T09:04:39.893Z,3.42
2023-10-26T09:07:09.501Z,4.25
2023-10-26T09:09:52.846Z,4.32
2023-10-26T09:12:22.553Z,4.45
2023-10-26T09:15:00.961Z,6.78
2023-10-26T09:17:31.141Z,5.80
2023-10-26T09:20:01.363Z,5.13
2023-10-26T09:22:40.452Z,4.53
2023-10-26T09:25:13.850Z,3.47
2023-10-26T09:27:43.741Z,2.47
2023-10-26T09:30:26.650Z,4.15
2023-10-26T09:32:56.516Z,4.05
2023-10-26T09:35:30.247Z,3.00
2023-10-26T09:38:00.403Z,3.53
2023-10-26T09:40:32.757Z,4.72
2023-10-26T09:43:02.459Z,5.07
2023-10-26T09:45:32.147Z,7.40
2023-10-26T09:48:04.327Z,5.82
2023-10-26T09:50:39.586Z,5.35
2023-10-26T09:55:42.075Z,5.95
2023-10-26T09:58:12.081Z,4.45
2023-10-26T10:00:42.075Z,3.35
2023-10-26T10:03:14.936Z,4.93
2023-10-26T10:05:45.344Z,5.70
2023-10-26T10:08:18.243Z,3.55
2023-10-26T10:11:20.819Z,3.25
2023-10-26T10:13:50.448Z,5.00
2023-10-26T10:16:53.109Z,3.63
2023-10-26T10:19:23.478Z,5.47
2023-10-26T10:21:53.724Z,4.57
2023-10-26T10:24:54.680Z,5.30
2023-10-26T10:27:27.034Z,4.43
2023-10-26T10:29:59.360Z,2.70
2023-10-26T10:32:54.436Z,2.55
2023-10-26T10:35:35.365Z,3.58
2023-10-26T10:38:22.374Z,5.88
2023-10-26T10:41:10.662Z,6.68
2023-10-26T10:43:44.928Z,5.68
2023-10-26T10:46:18.679Z,5.47
2023-10-26T10:48:58.713Z,5.68
2023-10-26T10:51:32.639Z,4.35
2023-10-26T10:54:05.984Z,4.65
2023-10-26T10:56:42.311Z,3.85
2023-10-26T10:59:22.207Z,4.65
2023-10-26T11:01:52.735Z,6.05
2023-10-26T11:04:25.026Z,4.78
2023-10-26T11:06:54.749Z,6.72
2023-10-26T11:09:28.865Z,5.45
2023-10-26T11:11:58.597Z,3.75
2023-10-26T11:14:31.034Z,5.55
2023-10-26T11:17:00.897Z,5.15
2023-10-26T11:19:30.620Z,4.88
2023-10-26T11:22:00.303Z,4.88
2023-10-26T11:24:33.461Z,5.55
2023-10-26T11:27:12.700Z,4.93
2023-10-26T11:29:45.148Z,5.15
2023-10-26T11:32:25.419Z,5.57
2023-10-26T11:35:08.410Z,4.63
2023-10-26T11:37:38.632Z,5.35
2023-10-26T11:40:09.910Z,5.95
2023-10-26T11:42:49.529Z,6.82
2023-10-26T11:45:22.536Z,5.70
2023-10-26T11:47:52.967Z,5.22
2023-10-26T11:50:23.913Z,4.70
2023-10-26T11:52:53.977Z,4.63
2023-10-26T11:55:23.940Z,4.15
2023-10-26T11:57:53.905Z,4.80
2023-10-26T12:00:26.204Z,4.72
2023-10-26T12:02:57.277Z,4.28
2023-10-26T12:07:56.931Z,5.25
2023-10-26T12:10:27.071Z,4.95
2023-10-26T12:12:56.833Z,3.57
2023-10-26T12:15:29.273Z,4.75
2023-10-26T12:17:59.352Z,3.40
2023-10-26T12:20:28.958Z,5.65
2023-10-26T12:22:58.618Z,6.50
2023-10-26T12:25:28.531Z,3.53
2023-10-26T12:28:19.692Z,3.80
2023-10-26T12:30:52.580Z,5.30
2023-10-26T12:33:22.464Z,6.68
2023-10-26T12:35:52.465Z,4.68
2023-10-26T12:38:24.893Z,4.70
2023-10-26T12:40:54.576Z,7.07
2023-10-26T12:43:24.232Z,5.82
2023-10-26T12:45:56.548Z,5.25
2023-10-26T12:48:26.803Z,6.07
2023-10-26T12:50:56.389Z,7.67
2023-10-26T12:53:26.408Z,6.45
2023-10-26T12:55:57.217Z,5.35
2023-10-26T12:58:27.149Z,5.40
2023-10-26T13:00:59.486Z,6.10
2023-10-26T13:03:29.178Z,5.43
2023-10-26T13:05:58.822Z,6.13
2023-10-26T13:08:29.190Z,6.35
2023-10-26T13:10:58.793Z,6.97
2023-10-26T13:13:28.559Z,6.90
2023-10-26T13:16:00.892Z,7.53
2023-10-26T13:18:30.600Z,6.40
2023-10-26T13:21:00.300Z,7.93
2023-10-26T13:23:29.945Z,7.60
2023-10-26T13:25:59.841Z,18.73
2023-10-26T13:28:29.802Z,16.02
2023-10-26T13:31:02.167Z,14.25
2023-10-26T13:33:31.976Z,7.32
2023-10-26T13:36:01.662Z,6.47
2023-10-26T13:38:31.450Z,7.28
2023-10-26T13:41:01.193Z,7.25
2023-10-26T13:43:31.016Z,7.05
2023-10-26T13:46:03.262Z,7.63
2023-10-26T13:48:33.188Z,5.97
2023-10-26T13:51:02.936Z,5.93
2023-10-26T13:53:32.617Z,6.68
2023-10-26T13:56:06.159Z,7.75
2023-10-26T13:58:35.818Z,6.68
2023-10-26T14:01:13.854Z,7.22
2023-10-26T14:03:43.577Z,5.57
2023-10-26T14:06:14.323Z,6.57
2023-10-26T14:08:43.900Z,6.28
2023-10-26T14:11:13.965Z,9.55
2023-10-26T14:13:44.174Z,4.88
2023-10-26T14:16:19.715Z,5.60
2023-10-26T14:18:49.483Z,8.00
2023-10-26T14:21:19.339Z,7.28
2023-10-26T14:23:48.961Z,6.63
2023-10-26T14:26:19.456Z,6.72
2023-10-26T14:28:49.239Z,9.20
2023-10-26T14:31:22.073Z,8.15
2023-10-26T14:33:53.168Z,6.82
2023-10-26T14:36:22.988Z,7.40
2023-10-26T14:38:53.288Z,9.50
2023-10-26T14:41:23.194Z,8.43
2023-10-26T14:43:55.159Z,8.95
2023-10-26T14:46:29.935Z,8.40
2023-10-26T14:49:01.225Z,6.60
2023-10-26T14:51:31.489Z,9.40
2023-10-26T14:54:04.335Z,8.55
2023-10-26T14:56:34.570Z,10.32
2023-10-26T14:59:04.396Z,8.67
2023-10-26T15:01:36.971Z,8.95
2023-10-26T15:04:09.030Z,8.18
2023-10-26T15:06:38.781Z,10.60
2023-10-26T15:09:09.726Z,9.15
2023-10-26T15:14:28.273Z,9.30
2023-10-26T15:17:00.483Z,7.90
2023-10-26T15:19:30.536Z,9.50
2023-10-26T15:22:00.152Z,8.43
2023-10-26T15:24:29.805Z,8.68
2023-10-26T15:26:59.433Z,9.98
2023-10-26T15:29:29.160Z,9.43
2023-10-26T15:32:01.406Z,9.70
2023-10-26T15:34:31.145Z,10.15
2023-10-26T15:37:00.806Z,10.73
2023-10-26T15:39:31.376Z,9.85
2023-10-26T15:42:01.074Z,8.70
2023-10-26T15:44:30.837Z,9.43
2023-10-26T15:47:03.422Z,8.50
2023-10-26T15:49:36.536Z,8.02
2023-10-26T15:52:07.102Z,10.88
2023-10-26T15:54:36.798Z,11.95
2023-10-26T15:57:07.485Z,8.07
2023-10-26T15:59:37.253Z,12.20
2023-10-26T16:02:09.573Z,19.30
2023-10-26T16:04:39.201Z,16.02
2023-10-26T16:07:08.778Z,10.52
2023-10-26T16:09:39.026Z,12.43
2023-10-26T16:12:10.020Z,12.03
2023-10-26T16:14:39.602Z,12.85
2023-10-26T16:17:11.869Z,9.73
2023-10-26T16:19:41.455Z,10.18
2023-10-26T16:22:11.908Z,10.02
2023-10-26T16:24:41.634Z,12.23
2023-10-26T16:27:14.675Z,13.15
2023-10-26T16:29:45.042Z,12.27
2023-10-26T16:32:18.326Z,12.25
2023-10-26T16:34:48.022Z,11.95
2023-10-26T16:37:17.825Z,9.43
2023-10-26T16:39:47.530Z,12.05
2023-10-26T16:42:17.113Z,12.07
2023-10-26T16:44:47.161Z,10.70
2023-10-26T16:47:19.515Z,11.82
2023-10-26T16:49:49.202Z,12.75
2023-10-26T16:52:18.791Z,15.43
2023-10-26T16:54:48.474Z,14.07
2023-10-26T16:57:18.124Z,12.93
2023-10-26T16:59:50.190Z,15.15
2023-10-26T17:02:24.014Z,16.75
2023-10-26T17:04:55.468Z,18.42
2023-10-26T17:07:26.281Z,17.58
2023-10-26T17:09:56.066Z,16.98
2023-10-26T17:12:25.668Z,15.80
2023-10-26T17:14:56.640Z,16.55
2023-10-26T17:17:28.868Z,17.23
2023-10-26T17:19:58.565Z,15.15
2023-10-26T17:22:28.214Z,14.63
2023-10-26T17:24:57.968Z,24.10
2023-10-26T17:27:27.634Z,16.20
2023-10-26T17:29:57.229Z,20.70
2023-10-26T17:32:30.508Z,17.23
2023-10-26T17:35:00.104Z,22.58
2023-10-26T17:37:29.750Z,15.57
2023-10-26T17:39:59.507Z,15.93
2023-10-26T17:42:29.536Z,13.25
2023-10-26T17:44:59.198Z,14.60
2023-10-26T17:47:31.516Z,15.63
2023-10-26T17:50:01.741Z,15.50
2023-10-26T17:52:31.800Z,14.70
2023-10-26T17:55:03.439Z,15.68
2023-10-26T17:57:33.905Z,17.10
2023-10-26T18:00:05.272Z,14.52
2023-10-26T18:02:38.321Z,16.33
2023-10-26T18:05:08.952Z,14.10
2023-10-26T18:07:38.565Z,16.80
2023-10-26T18:10:09.440Z,15.75
2023-10-26T18:12:39.158Z,23.67
2023-10-26T18:15:11.535Z,19.58
2023-10-26T18:17:43.834Z,18.50
2023-10-26T18:20:14.672Z,23.38
2023-10-26T18:22:44.271Z,30.52
2023-10-26T18:25:13.924Z,18.65
2023-10-26T18:27:43.718Z,19.02
2023-10-26T18:30:14.681Z,16.98
2023-10-26T18:32:47.058Z,18.23
2023-10-26T18:35:16.968Z,23.65
2023-10-26T18:37:46.595Z,24.98
2023-10-26T18:40:16.635Z,39.88
2023-10-26T18:42:46.391Z,20.80
2023-10-26T18:45:16.313Z,22.63
2023-10-26T18:47:48.568Z,24.00
2023-10-26T18:50:18.388Z,21.10
2023-10-26T18:52:48.187Z,22.45
2023-10-26T18:55:20.132Z,22.48
2023-10-26T18:57:49.795Z,20.88
2023-10-26T19:00:19.698Z,24.10
2023-10-26T19:02:51.944Z,23.45
2023-10-26T19:05:21.803Z,23.85
2023-10-26T19:07:51.466Z,25.85
2023-10-26T19:10:21.243Z,24.98
2023-10-26T19:12:55.450Z,27.67
2023-10-26T19:15:25.219Z,28.80
2023-10-26T19:17:57.415Z,31.00
2023-10-26T19:20:27.159Z,28.30
2023-10-26T19:22:56.923Z,27.00
2023-10-26T19:25:28.214Z,27.23
2023-10-26T19:27:58.280Z,26.75
2023-10-26T19:30:30.659Z,24.00
2023-10-26T19:33:03.026Z,23.75
2023-10-26T19:35:32.839Z,22.65
2023-10-26T19:38:02.472Z,22.02
2023-10-26T19:40:32.085Z,23.67
2023-10-26T19:43:01.735Z,19.63
2023-10-26T19:45:31.549Z,18.30
2023-10-26T19:48:04.144Z,18.30
2023-10-26T19:50:33.766Z,17.60
2023-10-26T19:53:03.506Z,16.27
2023-10-26T19:55:33.154Z,19.20
2023-10-26T19:58:02.785Z,16.10
2023-10-26T20:00:32.405Z,16.20
2023-10-26T20:03:05.471Z,16.40
2023-10-26T20:05:35.165Z,16.20
2023-10-26T20:08:04.764Z,17.48
2023-10-26T20:10:34.486Z,23.65
2023-10-26T20:13:04.328Z,21.30
2023-10-26T20:15:34.052Z,18.88
2023-10-26T20:18:08.742Z,19.75
2023-10-26T20:20:38.398Z,20.65
2023-10-26T20:23:08.243Z,21.38
2023-10-26T20:25:40.162Z,21.05
2023-10-26T20:28:11.194Z,21.88
2023-10-26T20:33:12.881Z,20.92
2023-10-26T20:35:42.681Z,21.73
2023-10-26T20:38:12.366Z,22.70
2023-10-26T20:40:42.667Z,25.70
2023-10-26T20:43:12.496Z,25.48
2023-10-26T20:45:42.183Z,26.52
2023-10-26T20:48:14.387Z,26.23
2023-10-26T20:50:44.012Z,23.77
2023-10-26T20:53:13.662Z,23.90
2023-10-26T20:55:43.296Z,24.85
2023-10-26T20:58:12.914Z,22.50
2023-10-26T21:00:45.177Z,22.35
2023-10-26T21:03:17.372Z,19.85
2023-10-26T21:05:46.984Z,21.42
2023-10-26T21:08:16.912Z,21.70
2023-10-26T21:10:46.878Z,23.98
2023-10-26T21:13:16.533Z,23.95
2023-10-26T21:15:46.292Z,23.98
2023-10-26T21:18:18.628Z,24.45
2023-10-26T21:20:48.224Z,24.20
2023-10-26T21:23:18.109Z,22.17
2023-10-26T21:25:47.985Z,26.10
2023-10-26T21:28:17.708Z,25.23
2023-10-26T21:30:47.813Z,23.85
2023-10-26T21:33:20.016Z,24.57
2023-10-26T21:35:49.710Z,22.58
2023-10-26T21:38:19.338Z,23.98
2023-10-26T21:40:49.218Z,22.80
2023-10-26T21:43:18.943Z,20.42
2023-10-26T21:45:49.301Z,21.80
2023-10-26T21:48:23.507Z,18.40
2023-10-26T21:50:53.150Z,16.00
2023-10-26T21:53:22.747Z,22.95
2023-10-26T21:55:52.457Z,21.02
2023-10-26T21:58:22.122Z,19.02
2023-10-26T22:00:54.516Z,17.80
2023-10-26T22:03:27.094Z,18.35
2023-10-26T22:05:57.104Z,21.67
2023-10-26T22:08:26.762Z,21.67
2023-10-26T22:10:56.549Z,22.30
2023-10-26T22:13:26.147Z,20.15
2023-10-26T22:15:55.730Z,21.02
2023-10-26T22:18:28.149Z,21.17
2023-10-26T22:20:57.808Z,23.70
2023-10-26T22:23:27.453Z,22.65
2023-10-26T22:26:01.015Z,20.50
2023-10-26T22:28:30.853Z,20.45
2023-10-26T22:31:01.726Z,18.80
2023-10-26T22:33:37.683Z,19.77
2023-10-26T22:36:08.295Z,19.02
2023-10-26T22:38:39.688Z,20.17
2023-10-26T22:41:11.609Z,18.58
2023-10-26T22:43:41.363Z,22.70
2023-10-26T22:46:11.007Z,19.00
2023-10-26T22:48:43.442Z,23.73
2023-10-26T22:51:13.120Z,21.50
2023-10-26T22:53:42.767Z,19.60
2023-10-26T22:56:12.434Z,18.95
2023-10-26T22:58:42.109Z,18.17
2023-10-26T23:01:11.792Z,21.00
2023-10-26T23:03:44.194Z,22.67
2023-10-26T23:06:13.818Z,20.20
2023-10-26T23:08:43.522Z,19.67
2023-10-26T23:11:13.154Z,21.65
2023-10-26T23:13:42.779Z,21.23
2023-10-26T23:16:12.494Z,18.85
2023-10-26T23:18:44.725Z,21.48
2023-10-26T23:21:14.388Z,15.32
2023-10-26T23:23:44.660Z,15.50
2023-10-26T23:26:14.338Z,17.23
2023-10-26T23:28:44.046Z,16.35
2023-10-26T23:31:14.150Z,16.77
2023-10-26T23:33:46.396Z,17.47
2023-10-26T23:36:16.102Z,16.33
2023-10-26T23:38:46.233Z,17.17
2023-10-26T23:41:15.881Z,14.13
2023-10-26T23:43:45.682Z,16.25
2023-10-26T23:46:15.311Z,15.25
2023-10-26T23:48:47.611Z,14.43
2023-10-26T23:51:17.328Z,14.95
2023-10-26T23:53:46.935Z,14.68
2023-10-26T23:56:16.895Z,12.57
2023-10-26T23:58:46.495Z,15.77
